aviador You're here:

SCTE Decoded Metar

PUERTO MONTT in CHILE
Report Time2017-08-21 13:00:00
UTC Time2017-08-21 13:54:23
Flight Rules vfr VFR
Wind010° at 18 kt
W.Decomp.*RWY 35: 17.7 kt HW 3.4 kt RCW
W.Rank010° ranks 1
Current wind is above 010° avg. (9.4)
Visibility9999 m
Phenomena:N/A
Clouds:Broken 030 Hf
Broken 080 Hf
Expected CloudBase > 1,200 ft AGL from Temp-Dew spread
Ceiling3,000 ft
Temp08°C (ISA -6)
Dew Point05°C (82% RH)
AAT0.4°C
QNH1011 hPa
Density Alt-302 ft
Elevation282 ft
Report Wrong Elevation
Raw Report
METAR SCTE 211300Z 01018KT 9999 BKN030 BKN080 08/05 Q1011 NOSIG=

Extra information for SCTE:More info

Metar Taf Metar & Taf Last 4 Metars F.Rules Stats Wind Profile Meteogram Temp Stats Airport Information Weather charts Add Link Nearby VenuesMetar ALERT Operation Metar Decoded Social comments